createdAt,value
2018-11-20T00:01:07.751Z,47.23
2018-11-20T00:04:12.226Z,38.93
2018-11-20T00:07:10.674Z,47.60
2018-11-20T00:10:02.749Z,42.53
2018-11-20T00:12:50.685Z,73.50
2018-11-20T00:15:45.171Z,43.80
2018-11-20T00:18:45.601Z,39.23
2018-11-20T00:21:23.089Z,36.60
2018-11-20T00:24:16.563Z,36.47
2018-11-20T00:27:05.759Z,35.83
2018-11-20T00:29:57.969Z,38.67
2018-11-20T00:32:53.168Z,47.03
2018-11-20T00:35:41.126Z,36.47
2018-11-20T00:38:28.951Z,36.97
2018-11-20T00:41:18.192Z,35.80
2018-11-20T00:43:57.961Z,38.50
2018-11-20T00:46:45.949Z,38.30
2018-11-20T00:49:33.916Z,36.97
2018-11-20T00:52:21.920Z,39.83
2018-11-20T00:55:16.363Z,37.30
2018-11-20T00:58:14.642Z,39.03
2018-11-20T01:01:04.752Z,37.57
2018-11-20T01:03:53.947Z,41.47
2018-11-20T01:06:45.688Z,38.00
2018-11-20T01:09:33.512Z,39.63
2018-11-20T01:12:21.884Z,39.90
2018-11-20T01:15:11.960Z,47.93
2018-11-20T01:18:01.424Z,50.50
2018-11-20T01:20:45.779Z,50.57
2018-11-20T01:23:41.034Z,52.57
2018-11-20T01:26:36.122Z,52.27
2018-11-20T01:29:23.813Z,49.20
2018-11-20T01:32:25.366Z,50.83
2018-11-20T01:35:16.684Z,49.40
2018-11-20T01:38:08.933Z,50.87
2018-11-20T01:40:56.567Z,43.50
2018-11-20T01:43:48.386Z,39.63
2018-11-20T01:46:52.633Z,42.37
2018-11-20T01:49:49.036Z,42.83
2018-11-20T01:52:36.790Z,42.77
2018-11-20T01:55:21.131Z,45.60
2018-11-20T01:58:16.206Z,42.97
2018-11-20T02:01:08.398Z,40.77
2018-11-20T02:04:00.840Z,43.50
2018-11-20T02:06:55.412Z,41.03
2018-11-20T02:09:44.600Z,40.17
2018-11-20T02:12:40.842Z,39.90
2018-11-20T02:15:37.549Z,40.20
2018-11-20T02:18:31.045Z,38.07
2018-11-20T02:21:20.229Z,41.40
2018-11-20T02:24:15.288Z,41.53
2018-11-20T02:27:03.138Z,41.00
2018-11-20T02:29:55.360Z,100.03
2018-11-20T02:32:56.756Z,50.00
2018-11-20T02:35:40.973Z,47.47
2018-11-20T02:38:28.828Z,42.63
2018-11-20T02:41:30.389Z,130.57
2018-11-20T02:44:15.121Z,107.60
2018-11-20T02:47:04.593Z,87.07
2018-11-20T02:49:59.491Z,60.93
2018-11-20T02:52:47.203Z,103.60
2018-11-20T02:55:39.451Z,78.37
2018-11-20T02:58:27.227Z,59.30
2018-11-20T03:01:11.409Z,59.47
2018-11-20T03:04:18.687Z,62.53
2018-11-20T03:07:10.754Z,75.90
2018-11-20T03:10:09.268Z,66.20
2018-11-20T03:12:47.785Z,61.47
2018-11-20T03:15:40.229Z,60.47
2018-11-20T03:18:22.023Z,71.33
2018-11-20T03:21:16.910Z,75.90
2018-11-20T03:24:04.700Z,59.17
2018-11-20T03:26:52.789Z,60.47
2018-11-20T03:30:34.856Z,55.90
2018-11-20T03:33:29.988Z,57.90
2018-11-20T03:36:19.253Z,65.00
2018-11-20T03:39:07.070Z,73.73
2018-11-20T03:41:59.025Z,61.33
2018-11-20T03:44:57.164Z,60.93
2018-11-20T03:47:55.469Z,93.67
2018-11-20T03:50:47.208Z,94.27
2018-11-20T03:53:39.326Z,75.17
2018-11-20T03:56:34.292Z,64.27
2018-11-20T03:59:32.424Z,55.00
2018-11-20T04:02:21.721Z,55.83
2018-11-20T04:05:16.786Z,107.53
2018-11-20T04:08:03.045Z,86.83
2018-11-20T04:11:03.107Z,131.23
2018-11-20T04:13:55.053Z,79.27
2018-11-20T04:16:43.269Z,74.37
2018-11-20T04:19:30.969Z,60.30
2018-11-20T04:22:20.176Z,65.17
2018-11-20T04:25:21.480Z,65.17
2018-11-20T04:28:16.613Z,65.77
2018-11-20T04:31:38.361Z,85.33
2018-11-20T04:34:33.684Z,78.27
2018-11-20T04:37:26.602Z,83.17
2018-11-20T04:40:15.982Z,56.43
2018-11-20T04:43:11.969Z,60.77
2018-11-20T04:46:01.183Z,64.17
2018-11-20T04:48:42.655Z,65.00
2018-11-20T04:51:34.610Z,70.57
2018-11-20T04:54:22.429Z,66.27
2018-11-20T04:57:20.583Z,63.60
2018-11-20T05:00:25.033Z,52.37
2018-11-20T05:03:12.827Z,49.03
2018-11-20T05:06:00.709Z,48.77
2018-11-20T05:09:08.434Z,39.60
2018-11-20T05:12:07.386Z,55.20
2018-11-20T05:15:02.425Z,51.53
2018-11-20T05:18:03.658Z,46.33
2018-11-20T05:20:52.420Z,51.93
2018-11-20T05:23:47.909Z,47.53
2018-11-20T05:26:35.699Z,50.87
2018-11-20T05:29:40.322Z,74.73
2018-11-20T05:32:35.374Z,61.17
2018-11-20T05:35:40.283Z,71.53
2018-11-20T05:38:28.188Z,36.67
2018-11-20T05:41:12.579Z,52.67
2018-11-20T05:44:10.958Z,41.13
2018-11-20T05:46:58.758Z,39.93
2018-11-20T05:49:46.304Z,35.43
2018-11-20T05:52:31.536Z,38.57
2018-11-20T05:55:26.679Z,38.17
2018-11-20T05:58:24.933Z,37.33
2018-11-20T06:01:14.175Z,41.90
2018-11-20T06:04:02.470Z,45.87
2018-11-20T06:06:54.711Z,51.20
2018-11-20T06:09:52.981Z,47.47
2018-11-20T06:12:45.034Z,35.37
2018-11-20T06:15:34.422Z,35.37
2018-11-20T06:18:24.829Z,39.43
2018-11-20T06:21:13.882Z,42.47
2018-11-20T06:24:05.719Z,42.90
2018-11-20T06:27:06.915Z,41.07
2018-11-20T06:29:54.592Z,37.07
2018-11-20T06:32:49.884Z,37.23
2018-11-20T06:35:44.804Z,36.27
2018-11-20T06:38:52.054Z,31.83
2018-11-20T06:41:40.039Z,32.30
2018-11-20T06:44:44.269Z,19.77
2018-11-20T06:47:36.358Z,24.37
2018-11-20T06:50:36.116Z,15.70
2018-11-20T06:53:28.487Z,18.60
2018-11-20T06:56:16.297Z,22.47
2018-11-20T06:59:04.291Z,21.07
2018-11-20T07:01:59.188Z,16.50
2018-11-20T07:04:47.087Z,19.77
2018-11-20T07:07:42.405Z,15.10
2018-11-20T07:10:26.894Z,13.17
2018-11-20T07:13:31.270Z,14.23
2018-11-20T07:17:00.583Z,18.43
2018-11-20T07:19:47.743Z,26.87
2018-11-20T07:22:52.331Z,39.80
2018-11-20T07:25:40.463Z,44.17
2018-11-20T07:28:28.434Z,26.03
2018-11-20T07:31:16.336Z,17.17
2018-11-20T07:34:05.353Z,45.10
2018-11-20T07:36:53.175Z,18.80
2018-11-20T07:39:51.048Z,24.90
2018-11-20T07:42:52.614Z,33.40
2018-11-20T07:45:44.591Z,17.17
2018-11-20T07:48:39.774Z,16.23
2018-11-20T07:51:27.895Z,19.00
2018-11-20T07:54:17.252Z,18.80
2018-11-20T07:57:21.779Z,17.60
2018-11-20T08:00:14.082Z,23.70
2018-11-20T08:03:09.369Z,20.90
2018-11-20T08:05:57.204Z,19.60
2018-11-20T08:08:45.150Z,18.00
2018-11-20T08:11:34.366Z,25.43
2018-11-20T08:14:24.326Z,19.97
2018-11-20T08:17:17.140Z,22.03
2018-11-20T08:20:04.775Z,20.00
2018-11-20T08:22:49.330Z,19.47
2018-11-20T08:25:47.448Z,21.87
2018-11-20T08:28:36.708Z,18.67
2018-11-20T08:31:30.035Z,25.17
2018-11-20T08:34:11.258Z,15.07
2018-11-20T08:36:59.114Z,17.17
2018-11-20T08:39:46.934Z,26.07
2018-11-20T08:42:51.266Z,15.87
2018-11-20T08:45:52.577Z,20.53
2018-11-20T08:48:53.744Z,20.67
2018-11-20T08:51:48.887Z,17.47
2018-11-20T08:54:36.713Z,16.83
2018-11-20T08:57:24.806Z,14.47
2018-11-20T09:00:23.377Z,15.37
2018-11-20T09:03:15.836Z,16.20
2018-11-20T09:06:20.184Z,14.13
2018-11-20T09:09:07.987Z,14.13
2018-11-20T09:12:06.564Z,15.20
2018-11-20T09:14:53.970Z,13.77
2018-11-20T09:17:41.962Z,16.43
2018-11-20T09:20:39.837Z,21.43
2018-11-20T09:23:34.785Z,24.40
2018-11-20T09:26:30.194Z,21.87
2018-11-20T09:29:17.835Z,24.50
2018-11-20T09:32:06.235Z,23.77
2018-11-20T09:34:51.116Z,19.77
2018-11-20T09:37:49.421Z,21.20
2018-11-20T09:41:08.572Z,21.37
2018-11-20T09:44:02.801Z,20.07
2018-11-20T09:46:55.067Z,26.97
2018-11-20T09:49:42.852Z,26.47
2018-11-20T09:52:30.636Z,24.43
2018-11-20T09:55:18.321Z,26.60
2018-11-20T09:58:06.651Z,23.00
2018-11-20T10:01:00.594Z,23.30
2018-11-20T10:04:02.248Z,25.67
2018-11-20T10:06:46.818Z,28.27
2018-11-20T10:09:36.028Z,28.37
2018-11-20T10:12:40.183Z,25.10
2018-11-20T10:15:29.410Z,38.70
2018-11-20T10:18:17.223Z,36.10
2018-11-20T10:21:18.843Z,35.67
2018-11-20T10:24:14.163Z,38.00
2018-11-20T10:27:12.582Z,36.00
2018-11-20T10:30:00.561Z,34.53
2018-11-20T10:32:52.876Z,30.03
2018-11-20T10:35:48.029Z,30.37
2018-11-20T10:38:37.295Z,31.73
2018-11-20T10:41:32.506Z,43.37
2018-11-20T10:44:27.683Z,38.60
2018-11-20T10:47:20.085Z,31.90
2018-11-20T10:50:08.110Z,31.67
2018-11-20T10:52:54.624Z,33.23
2018-11-20T10:56:02.177Z,37.57
2018-11-20T10:58:57.578Z,168.27
2018-11-20T11:01:45.662Z,41.80
2018-11-20T11:04:32.913Z,48.87
2018-11-20T11:07:28.064Z,43.40
2018-11-20T11:10:05.616Z,41.77
2018-11-20T11:12:52.978Z,34.40
2018-11-20T11:15:48.184Z,36.57
2018-11-20T11:18:41.757Z,37.30
2018-11-20T11:21:29.703Z,33.67
2018-11-20T11:24:21.516Z,33.57
2018-11-20T11:27:13.475Z,34.93
2018-11-20T11:30:15.041Z,35.87
2018-11-20T11:33:16.528Z,38.77
2018-11-20T11:36:08.804Z,35.67
2018-11-20T11:38:48.624Z,38.00
2018-11-20T11:41:49.773Z,35.03
2018-11-20T11:44:37.662Z,32.37
2018-11-20T11:47:45.290Z,33.83
2018-11-20T11:50:46.814Z,29.13
2018-11-20T11:53:36.127Z,34.47
2018-11-20T11:56:24.158Z,33.93
2018-11-20T11:59:12.328Z,37.67
2018-11-20T12:05:06.686Z,35.77
2018-11-20T12:08:04.738Z,33.20
2018-11-20T12:10:52.545Z,38.43
2018-11-20T12:14:00.053Z,31.43
2018-11-20T12:16:47.993Z,31.33
2018-11-20T12:19:40.346Z,37.17
2018-11-20T12:22:41.645Z,34.40
2018-11-20T12:25:19.419Z,34.47
2018-11-20T12:28:19.347Z,33.57
2018-11-20T12:31:23.744Z,30.40
2018-11-20T12:34:12.929Z,41.60
2018-11-20T12:37:00.846Z,40.20
2018-11-20T12:39:49.877Z,52.27
2018-11-20T12:42:42.061Z,43.77
2018-11-20T12:45:34.180Z,42.20
2018-11-20T12:48:23.167Z,45.73
2018-11-20T12:51:13.062Z,41.67
2018-11-20T12:54:02.279Z,34.60
2018-11-20T12:56:50.073Z,38.63
2018-11-20T12:59:37.503Z,35.73
2018-11-20T13:02:25.542Z,39.00
2018-11-20T13:05:28.646Z,40.47
2018-11-20T13:08:10.259Z,38.30
2018-11-20T13:11:08.230Z,39.40
2018-11-20T13:14:00.286Z,41.17
2018-11-20T13:16:49.515Z,45.80
2018-11-20T13:19:44.547Z,39.97
2018-11-20T13:22:35.677Z,50.57
2018-11-20T13:25:38.748Z,51.40
2018-11-20T13:28:30.860Z,42.07
2018-11-20T13:31:20.673Z,40.70
2018-11-20T13:34:20.943Z,39.17
2018-11-20T13:37:11.830Z,46.73
2018-11-20T13:40:06.724Z,43.37
2018-11-20T13:42:53.519Z,54.37
2018-11-20T13:45:43.628Z,70.33
2018-11-20T13:48:30.696Z,69.43
2018-11-20T13:51:20.268Z,79.43
2018-11-20T13:54:08.313Z,61.97
2018-11-20T13:56:56.507Z,54.87
2018-11-20T13:59:44.260Z,49.80
2018-11-20T14:02:48.871Z,41.40
2018-11-20T14:05:32.899Z,48.77
2018-11-20T14:08:21.973Z,51.23
2018-11-20T14:11:06.197Z,40.47
2018-11-20T14:13:48.740Z,144.30
2018-11-20T14:16:50.124Z,294.80
2018-11-20T14:19:37.970Z,67.00
2018-11-20T14:22:45.324Z,159.37
2018-11-20T14:25:47.063Z,133.70
2018-11-20T14:28:30.295Z,206.67
2018-11-20T14:31:28.762Z,41.97
2018-11-20T14:34:18.764Z,47.47
2018-11-20T14:37:10.791Z,106.67
2018-11-20T14:40:08.755Z,123.50
2018-11-20T14:42:56.543Z,167.63
2018-11-20T14:45:44.560Z,41.77
2018-11-20T14:48:30.804Z,35.33
2018-11-20T14:51:28.512Z,42.73
2018-11-20T14:54:08.504Z,39.67
2018-11-20T14:57:09.847Z,40.80
2018-11-20T14:59:57.757Z,62.60
2018-11-20T15:02:55.832Z,51.07
2018-11-20T15:05:43.985Z,39.40
2018-11-20T15:08:33.168Z,44.63
2018-11-20T15:11:21.328Z,45.20
2018-11-20T15:14:16.324Z,71.00
2018-11-20T15:17:01.723Z,50.07
2018-11-20T15:19:49.618Z,54.90
2018-11-20T15:22:37.277Z,52.83
2018-11-20T15:25:37.631Z,62.47
2018-11-20T15:28:35.711Z,63.47
2018-11-20T15:31:30.659Z,63.23
2018-11-20T15:34:21.581Z,45.10
2018-11-20T15:37:09.440Z,68.23
2018-11-20T15:40:14.067Z,49.63
2018-11-20T15:43:21.507Z,44.93
2018-11-20T15:46:19.539Z,49.17
2018-11-20T15:49:21.735Z,43.83
2018-11-20T15:52:10.022Z,51.23
2018-11-20T15:55:01.762Z,50.67
2018-11-20T15:57:51.125Z,50.07
2018-11-20T16:00:39.108Z,54.37
2018-11-20T16:03:43.665Z,66.67
2018-11-20T16:06:47.984Z,59.27
2018-11-20T16:09:35.955Z,68.10
2018-11-20T16:12:34.953Z,46.63
2018-11-20T16:15:37.248Z,56.73
2018-11-20T16:18:44.722Z,57.13
2018-11-20T16:21:36.668Z,64.93
2018-11-20T16:24:38.209Z,77.37
2018-11-20T16:27:27.418Z,71.40
2018-11-20T16:30:15.162Z,70.87
2018-11-20T16:33:07.400Z,85.83
2018-11-20T16:36:11.778Z,63.13
2018-11-20T16:39:06.724Z,50.13
2018-11-20T16:42:01.597Z,54.03
2018-11-20T16:44:50.828Z,55.93
2018-11-20T16:47:33.408Z,62.07
2018-11-20T16:50:25.284Z,68.33
2018-11-20T16:53:28.049Z,56.83
2018-11-20T16:56:23.114Z,48.73
2018-11-20T16:59:27.608Z,45.20
2018-11-20T17:02:29.740Z,51.47
2018-11-20T17:05:24.755Z,48.13
2018-11-20T17:08:14.403Z,48.57
2018-11-20T17:11:00.926Z,55.43
2018-11-20T17:13:59.058Z,57.57
2018-11-20T17:17:00.306Z,51.60
2018-11-20T17:20:07.800Z,57.63
2018-11-20T17:22:55.809Z,52.53
2018-11-20T17:25:46.179Z,57.83
2018-11-20T17:28:44.436Z,61.03
2018-11-20T17:31:42.502Z,77.87
2018-11-20T17:34:34.745Z,79.10
2018-11-20T17:37:23.159Z,66.20
2018-11-20T17:40:15.387Z,71.30
2018-11-20T17:43:22.509Z,53.17
2018-11-20T17:46:10.581Z,52.17
2018-11-20T17:48:58.910Z,84.63
2018-11-20T17:51:51.031Z,64.33
2018-11-20T17:54:42.975Z,64.90
2018-11-20T17:57:31.220Z,56.03
2018-11-20T18:00:29.433Z,54.07
2018-11-20T18:03:17.372Z,58.83
2018-11-20T18:06:05.266Z,50.50
2018-11-20T18:08:44.388Z,56.97
2018-11-20T18:11:52.018Z,54.20
2018-11-20T18:14:40.960Z,70.00
2018-11-20T18:17:35.760Z,58.17
2018-11-20T18:20:25.177Z,57.00
2018-11-20T18:23:15.953Z,70.80
2018-11-20T18:26:06.790Z,66.90
2018-11-20T18:29:08.038Z,64.10
2018-11-20T18:32:03.143Z,70.77
2018-11-20T18:34:51.138Z,66.77
2018-11-20T18:37:40.415Z,70.13
2018-11-20T18:40:41.820Z,69.60
2018-11-20T18:43:29.569Z,66.50
2018-11-20T18:46:11.753Z,78.13
2018-11-20T18:49:16.250Z,67.90
2018-11-20T18:52:08.210Z,60.77
2018-11-20T18:55:01.320Z,57.07
2018-11-20T18:58:05.500Z,60.23
2018-11-20T19:01:39.385Z,54.93
2018-11-20T19:04:22.082Z,55.70
2018-11-20T19:07:09.383Z,52.53
2018-11-20T19:09:59.077Z,51.90
2018-11-20T19:12:47.486Z,58.13
2018-11-20T19:15:38.695Z,58.80
2018-11-20T19:18:25.672Z,53.87
2018-11-20T19:21:12.535Z,62.90
2018-11-20T19:23:59.598Z,68.77
2018-11-20T19:26:53.805Z,91.63
2018-11-20T19:29:41.665Z,78.67
2018-11-20T19:32:30.084Z,79.23
2018-11-20T19:35:17.012Z,66.23
2018-11-20T19:38:08.151Z,62.33
2018-11-20T19:41:11.617Z,59.23
2018-11-20T19:43:58.675Z,54.70
2018-11-20T19:46:43.785Z,63.10
2018-11-20T19:49:32.145Z,60.50
2018-11-20T19:52:29.529Z,56.83
2018-11-20T19:55:16.355Z,49.67
2018-11-20T19:58:23.029Z,52.10
2018-11-20T20:01:26.462Z,47.60
2018-11-20T20:04:14.934Z,42.47
2018-11-20T20:07:03.321Z,43.20
2018-11-20T20:09:48.427Z,53.57
2018-11-20T20:12:36.861Z,50.43
2018-11-20T20:15:38.789Z,56.53
2018-11-20T20:18:27.192Z,59.70
2018-11-20T20:21:14.301Z,58.63
2018-11-20T20:23:57.855Z,62.30
2018-11-20T20:26:44.742Z,51.97
2018-11-20T20:29:33.117Z,56.63
2018-11-20T20:32:24.027Z,56.80
2018-11-20T20:35:15.106Z,44.10
2018-11-20T20:38:04.176Z,52.50
2018-11-20T20:41:01.480Z,48.83
2018-11-20T20:43:48.716Z,45.10
2018-11-20T20:46:43.194Z,49.70
2018-11-20T20:49:24.426Z,71.73
2018-11-20T20:52:21.718Z,61.83
2018-11-20T20:55:19.395Z,52.77
2018-11-20T20:58:06.400Z,51.53
2018-11-20T21:01:03.641Z,65.63
2018-11-20T21:03:50.966Z,69.37
2018-11-20T21:06:38.616Z,50.20
2018-11-20T21:09:27.562Z,51.70
2018-11-20T21:12:14.857Z,46.47
2018-11-20T21:15:20.841Z,41.40
2018-11-20T21:18:09.765Z,37.67
2018-11-20T21:21:12.656Z,42.00
2018-11-20T21:23:52.756Z,44.30
2018-11-20T21:26:43.855Z,38.27
2018-11-20T21:29:50.528Z,36.07
2018-11-20T21:32:37.619Z,23.53
2018-11-20T21:35:29.197Z,24.40
2018-11-20T21:38:20.456Z,27.13
2018-11-20T21:41:05.827Z,30.10
2018-11-20T21:44:06.462Z,24.80
2018-11-20T21:46:54.902Z,23.03
2018-11-20T21:49:42.195Z,22.50
2018-11-20T21:52:33.370Z,23.77
2018-11-20T21:55:40.138Z,24.70
2018-11-20T21:58:26.197Z,29.10
2018-11-20T22:01:32.566Z,22.60
2018-11-20T22:04:33.303Z,24.07
2018-11-20T22:07:20.493Z,25.50
2018-11-20T22:10:07.501Z,22.47
2018-11-20T22:13:08.071Z,22.60
2018-11-20T22:15:56.500Z,18.50
2018-11-20T22:18:43.712Z,20.33
2018-11-20T22:21:31.286Z,20.53
2018-11-20T22:24:34.682Z,25.30
2018-11-20T22:27:23.182Z,19.20
2018-11-20T22:30:03.223Z,26.97
2018-11-20T22:32:50.117Z,23.87
2018-11-20T22:35:38.626Z,25.90
2018-11-20T22:38:42.220Z,28.70
2018-11-20T22:41:42.619Z,24.80
2018-11-20T22:44:34.005Z,26.70
2018-11-20T22:47:17.044Z,21.47
2018-11-20T22:50:20.862Z,23.57
2018-11-20T22:53:11.919Z,23.97
2018-11-20T22:56:06.084Z,18.00
2018-11-20T22:59:05.195Z,23.93
2018-11-20T23:01:53.748Z,24.73
2018-11-20T23:04:48.510Z,21.13
2018-11-20T23:07:39.846Z,22.83
2018-11-20T23:10:09.274Z,19.03
2018-11-20T23:12:38.738Z,21.23
2018-11-20T23:15:10.759Z,28.07
2018-11-20T23:17:40.193Z,22.40
2018-11-20T23:20:10.731Z,22.57
2018-11-20T23:22:40.217Z,29.13
2018-11-20T23:25:11.497Z,22.33
2018-11-20T23:27:41.146Z,30.33
2018-11-20T23:30:15.261Z,34.40
2018-11-20T23:32:44.732Z,31.87
2018-11-20T23:35:14.278Z,34.13
2018-11-20T23:37:44.040Z,20.97
2018-11-20T23:40:14.231Z,21.77
2018-11-20T23:42:43.637Z,19.70
2018-11-20T23:45:14.214Z,21.00
2018-11-20T23:47:43.669Z,19.33
2018-11-20T23:50:14.227Z,22.93
2018-11-20T23:52:43.673Z,25.67
2018-11-20T23:55:14.351Z,19.93
2018-11-20T23:57:43.799Z,17.83
